sensor_id;sensor_type;location;lat;lon;timestamp;P1;durP1;ratioP1;P2;durP2;ratioP2
71679;SDS011;59512;42.662;23.254;2023-04-03T00:01:47;6.70;;;3.90;;
71679;SDS011;59512;42.662;23.254;2023-04-03T00:04:13;9.00;;;4.50;;
71679;SDS011;59512;42.662;23.254;2023-04-03T00:06:38;9.07;;;4.50;;
71679;SDS011;59512;42.662;23.254;2023-04-03T00:09:03;9.50;;;4.30;;
71679;SDS011;59512;42.662;23.254;2023-04-03T00:11:29;9.33;;;4.90;;
71679;SDS011;59512;42.662;23.254;2023-04-03T00:13:54;13.15;;;6.00;;
71679;SDS011;59512;42.662;23.254;2023-04-03T00:16:20;7.70;;;3.47;;
71679;SDS011;59512;42.662;23.254;2023-04-03T00:18:45;8.43;;;3.73;;
71679;SDS011;59512;42.662;23.254;2023-04-03T00:21:12;10.77;;;5.00;;
71679;SDS011;59512;42.662;23.254;2023-04-03T00:23:38;8.40;;;4.10;;
71679;SDS011;59512;42.662;23.254;2023-04-03T00:26:03;7.37;;;4.10;;
71679;SDS011;59512;42.662;23.254;2023-04-03T00:28:29;8.07;;;4.20;;
71679;SDS011;59512;42.662;23.254;2023-04-03T00:30:54;8.80;;;4.13;;
71679;SDS011;59512;42.662;23.254;2023-04-03T00:33:20;9.23;;;4.60;;
71679;SDS011;59512;42.662;23.254;2023-04-03T00:35:46;10.43;;;4.80;;
71679;SDS011;59512;42.662;23.254;2023-04-03T00:38:13;9.95;;;4.50;;
71679;SDS011;59512;42.662;23.254;2023-04-03T00:40:39;8.50;;;4.50;;
71679;SDS011;59512;42.662;23.254;2023-04-03T00:43:14;9.00;;;4.18;;
71679;SDS011;59512;42.662;23.254;2023-04-03T00:45:48;7.07;;;3.70;;
71679;SDS011;59512;42.662;23.254;2023-04-03T00:48:37;14.27;;;9.20;;
71679;SDS011;59512;42.662;23.254;2023-04-03T00:51:00;8.70;;;4.05;;
71679;SDS011;59512;42.662;23.254;2023-04-03T00:53:32;10.02;;;6.18;;
71679;SDS011;59512;42.662;23.254;2023-04-03T00:56:01;14.63;;;8.20;;
71679;SDS011;59512;42.662;23.254;2023-04-03T00:58:37;6.57;;;2.60;;
71679;SDS011;59512;42.662;23.254;2023-04-03T01:01:08;8.40;;;3.60;;
71679;SDS011;59512;42.662;23.254;2023-04-03T01:03:37;6.63;;;2.83;;
71679;SDS011;59512;42.662;23.254;2023-04-03T01:06:03;7.73;;;3.20;;
71679;SDS011;59512;42.662;23.254;2023-04-03T01:08:28;7.47;;;3.30;;
71679;SDS011;59512;42.662;23.254;2023-04-03T01:10:54;8.20;;;3.13;;
71679;SDS011;59512;42.662;23.254;2023-04-03T01:13:27;7.15;;;3.20;;
71679;SDS011;59512;42.662;23.254;2023-04-03T01:15:54;6.63;;;2.93;;
71679;SDS011;59512;42.662;23.254;2023-04-03T01:18:20;7.95;;;3.55;;
71679;SDS011;59512;42.662;23.254;2023-04-03T01:26:16;7.57;;;3.22;;
71679;SDS011;59512;42.662;23.254;2023-04-03T01:28:42;7.70;;;3.10;;
71679;SDS011;59512;42.662;23.254;2023-04-03T01:31:12;7.67;;;3.47;;
71679;SDS011;59512;42.662;23.254;2023-04-03T01:33:47;7.20;;;3.58;;
71679;SDS011;59512;42.662;23.254;2023-04-03T01:36:15;8.35;;;3.08;;
71679;SDS011;59512;42.662;23.254;2023-04-03T01:38:45;8.60;;;3.40;;
71679;SDS011;59512;42.662;23.254;2023-04-03T01:41:11;7.57;;;2.93;;
71679;SDS011;59512;42.662;23.254;2023-04-03T01:43:36;7.80;;;3.30;;
71679;SDS011;59512;42.662;23.254;2023-04-03T01:46:02;8.77;;;3.60;;
71679;SDS011;59512;42.662;23.254;2023-04-03T01:48:27;9.30;;;3.47;;
71679;SDS011;59512;42.662;23.254;2023-04-03T01:50:53;9.90;;;4.63;;
71679;SDS011;59512;42.662;23.254;2023-04-03T01:53:18;9.70;;;4.78;;
71679;SDS011;59512;42.662;23.254;2023-04-03T01:55:44;8.83;;;3.90;;
71679;SDS011;59512;42.662;23.254;2023-04-03T01:58:10;8.10;;;4.20;;
71679;SDS011;59512;42.662;23.254;2023-04-03T02:00:35;7.35;;;3.22;;
71679;SDS011;59512;42.662;23.254;2023-04-03T02:03:01;8.10;;;3.33;;
71679;SDS011;59512;42.662;23.254;2023-04-03T02:05:27;7.50;;;3.45;;
71679;SDS011;59512;42.662;23.254;2023-04-03T02:07:53;9.03;;;3.60;;
71679;SDS011;59512;42.662;23.254;2023-04-03T02:10:18;8.77;;;4.23;;
71679;SDS011;59512;42.662;23.254;2023-04-03T02:12:44;6.23;;;2.90;;
71679;SDS011;59512;42.662;23.254;2023-04-03T02:15:10;6.00;;;2.45;;
71679;SDS011;59512;42.662;23.254;2023-04-03T02:17:35;5.70;;;2.75;;
71679;SDS011;59512;42.662;23.254;2023-04-03T02:20:01;6.53;;;3.10;;
71679;SDS011;59512;42.662;23.254;2023-04-03T02:22:28;9.15;;;3.20;;
71679;SDS011;59512;42.662;23.254;2023-04-03T02:24:53;8.07;;;2.60;;
71679;SDS011;59512;42.662;23.254;2023-04-03T02:27:19;8.53;;;3.30;;
71679;SDS011;59512;42.662;23.254;2023-04-03T02:29:44;6.83;;;3.10;;
71679;SDS011;59512;42.662;23.254;2023-04-03T02:32:09;6.37;;;2.77;;
71679;SDS011;59512;42.662;23.254;2023-04-03T02:34:35;7.45;;;3.13;;
71679;SDS011;59512;42.662;23.254;2023-04-03T02:37:00;8.70;;;3.50;;
71679;SDS011;59512;42.662;23.254;2023-04-03T02:39:26;9.57;;;4.20;;
71679;SDS011;59512;42.662;23.254;2023-04-03T02:41:52;6.43;;;2.90;;
71679;SDS011;59512;42.662;23.254;2023-04-03T02:44:17;7.40;;;3.33;;
71679;SDS011;59512;42.662;23.254;2023-04-03T02:46:43;8.60;;;3.30;;
71679;SDS011;59512;42.662;23.254;2023-04-03T02:49:09;7.47;;;3.33;;
71679;SDS011;59512;42.662;23.254;2023-04-03T02:51:34;10.50;;;4.30;;
71679;SDS011;59512;42.662;23.254;2023-04-03T02:54:00;10.45;;;3.92;;
71679;SDS011;59512;42.662;23.254;2023-04-03T02:56:25;7.97;;;3.15;;
71679;SDS011;59512;42.662;23.254;2023-04-03T02:58:51;6.73;;;3.33;;
71679;SDS011;59512;42.662;23.254;2023-04-03T03:01:17;9.00;;;3.80;;
71679;SDS011;59512;42.662;23.254;2023-04-03T03:03:43;8.13;;;4.07;;
71679;SDS011;59512;42.662;23.254;2023-04-03T03:06:15;7.07;;;3.33;;
71679;SDS011;59512;42.662;23.254;2023-04-03T03:08:41;13.67;;;4.00;;
71679;SDS011;59512;42.662;23.254;2023-04-03T03:11:07;6.90;;;3.80;;
71679;SDS011;59512;42.662;23.254;2023-04-03T03:13:33;7.37;;;3.63;;
71679;SDS011;59512;42.662;23.254;2023-04-03T03:15:59;8.25;;;3.63;;
71679;SDS011;59512;42.662;23.254;2023-04-03T03:18:25;7.65;;;3.80;;
71679;SDS011;59512;42.662;23.254;2023-04-03T03:20:51;9.73;;;4.47;;
71679;SDS011;59512;42.662;23.254;2023-04-03T03:23:18;10.50;;;5.47;;
71679;SDS011;59512;42.662;23.254;2023-04-03T03:25:43;9.18;;;5.75;;
71679;SDS011;59512;42.662;23.254;2023-04-03T03:28:09;11.23;;;5.17;;
71679;SDS011;59512;42.662;23.254;2023-04-03T03:30:34;10.53;;;5.33;;
71679;SDS011;59512;42.662;23.254;2023-04-03T03:33:00;12.37;;;5.70;;
71679;SDS011;59512;42.662;23.254;2023-04-03T03:35:26;12.82;;;6.53;;
71679;SDS011;59512;42.662;23.254;2023-04-03T03:37:51;13.10;;;6.55;;
71679;SDS011;59512;42.662;23.254;2023-04-03T03:40:17;10.27;;;5.33;;
71679;SDS011;59512;42.662;23.254;2023-04-03T03:42:42;8.37;;;5.00;;
71679;SDS011;59512;42.662;23.254;2023-04-03T03:45:08;13.83;;;6.47;;
71679;SDS011;59512;42.662;23.254;2023-04-03T03:47:34;12.38;;;5.57;;
71679;SDS011;59512;42.662;23.254;2023-04-03T03:50:00;13.38;;;5.45;;
71679;SDS011;59512;42.662;23.254;2023-04-03T03:52:26;9.63;;;4.60;;
71679;SDS011;59512;42.662;23.254;2023-04-03T03:54:51;8.53;;;4.37;;
71679;SDS011;59512;42.662;23.254;2023-04-03T03:57:17;11.27;;;5.32;;
71679;SDS011;59512;42.662;23.254;2023-04-03T03:59:42;12.10;;;6.13;;
71679;SDS011;59512;42.662;23.254;2023-04-03T04:02:09;18.63;;;8.85;;
71679;SDS011;59512;42.662;23.254;2023-04-03T04:04:35;13.90;;;6.93;;
71679;SDS011;59512;42.662;23.254;2023-04-03T04:07:01;14.40;;;7.43;;
71679;SDS011;59512;42.662;23.254;2023-04-03T04:09:26;14.20;;;6.00;;
71679;SDS011;59512;42.662;23.254;2023-04-03T04:11:52;11.23;;;5.80;;
71679;SDS011;59512;42.662;23.254;2023-04-03T04:14:18;12.48;;;5.85;;
71679;SDS011;59512;42.662;23.254;2023-04-03T04:16:45;12.88;;;6.53;;
71679;SDS011;59512;42.662;23.254;2023-04-03T04:19:11;14.98;;;7.25;;
71679;SDS011;59512;42.662;23.254;2023-04-03T04:21:37;15.27;;;7.20;;
71679;SDS011;59512;42.662;23.254;2023-04-03T04:24:04;9.70;;;5.70;;
71679;SDS011;59512;42.662;23.254;2023-04-03T04:26:30;14.07;;;6.30;;
71679;SDS011;59512;42.662;23.254;2023-04-03T04:28:55;13.38;;;6.47;;
71679;SDS011;59512;42.662;23.254;2023-04-03T04:31:20;16.80;;;6.82;;
71679;SDS011;59512;42.662;23.254;2023-04-03T04:33:46;12.73;;;7.37;;
71679;SDS011;59512;42.662;23.254;2023-04-03T04:36:11;17.73;;;7.90;;
71679;SDS011;59512;42.662;23.254;2023-04-03T04:38:37;18.73;;;7.53;;
71679;SDS011;59512;42.662;23.254;2023-04-03T04:41:03;11.23;;;5.82;;
71679;SDS011;59512;42.662;23.254;2023-04-03T04:43:29;10.70;;;5.82;;
71679;SDS011;59512;42.662;23.254;2023-04-03T04:46:07;19.23;;;8.60;;
71679;SDS011;59512;42.662;23.254;2023-04-03T04:48:36;26.42;;;10.13;;
71679;SDS011;59512;42.662;23.254;2023-04-03T04:51:02;17.10;;;8.83;;
71679;SDS011;59512;42.662;23.254;2023-04-03T04:53:27;18.83;;;9.70;;
71679;SDS011;59512;42.662;23.254;2023-04-03T04:55:53;15.80;;;8.20;;
71679;SDS011;59512;42.662;23.254;2023-04-03T04:58:18;23.40;;;9.70;;
71679;SDS011;59512;42.662;23.254;2023-04-03T05:00:45;20.38;;;10.38;;
71679;SDS011;59512;42.662;23.254;2023-04-03T05:03:10;18.47;;;10.60;;
71679;SDS011;59512;42.662;23.254;2023-04-03T05:05:36;19.83;;;11.00;;
71679;SDS011;59512;42.662;23.254;2023-04-03T05:08:02;23.05;;;12.25;;
71679;SDS011;59512;42.662;23.254;2023-04-03T05:10:28;25.47;;;11.67;;
71679;SDS011;59512;42.662;23.254;2023-04-03T05:12:53;22.27;;;11.43;;
71679;SDS011;59512;42.662;23.254;2023-04-03T05:15:19;22.23;;;11.20;;
71679;SDS011;59512;42.662;23.254;2023-04-03T05:17:45;20.58;;;11.23;;
71679;SDS011;59512;42.662;23.254;2023-04-03T05:20:10;19.53;;;10.47;;
71679;SDS011;59512;42.662;23.254;2023-04-03T05:22:36;23.02;;;11.75;;
71679;SDS011;59512;42.662;23.254;2023-04-03T05:25:01;25.43;;;12.73;;
71679;SDS011;59512;42.662;23.254;2023-04-03T05:27:27;20.93;;;11.83;;
71679;SDS011;59512;42.662;23.254;2023-04-03T05:29:55;21.27;;;11.40;;
71679;SDS011;59512;42.662;23.254;2023-04-03T05:32:21;20.70;;;11.80;;
71679;SDS011;59512;42.662;23.254;2023-04-03T05:34:47;23.33;;;12.85;;
71679;SDS011;59512;42.662;23.254;2023-04-03T05:37:13;25.13;;;15.10;;
71679;SDS011;59512;42.662;23.254;2023-04-03T05:39:38;30.87;;;15.60;;
71679;SDS011;59512;42.662;23.254;2023-04-03T05:42:06;30.05;;;18.10;;
71679;SDS011;59512;42.662;23.254;2023-04-03T05:44:32;28.90;;;17.30;;
71679;SDS011;59512;42.662;23.254;2023-04-03T05:46:57;30.97;;;17.83;;
71679;SDS011;59512;42.662;23.254;2023-04-03T05:49:23;26.60;;;16.00;;
71679;SDS011;59512;42.662;23.254;2023-04-03T05:51:48;24.83;;;14.87;;
71679;SDS011;59512;42.662;23.254;2023-04-03T05:54:26;27.40;;;15.53;;
71679;SDS011;59512;42.662;23.254;2023-04-03T05:56:53;31.13;;;15.27;;
71679;SDS011;59512;42.662;23.254;2023-04-03T05:59:19;27.77;;;14.57;;
71679;SDS011;59512;42.662;23.254;2023-04-03T06:01:44;26.50;;;15.57;;
71679;SDS011;59512;42.662;23.254;2023-04-03T06:04:11;24.50;;;14.98;;
71679;SDS011;59512;42.662;23.254;2023-04-03T06:09:18;27.80;;;13.43;;
71679;SDS011;59512;42.662;23.254;2023-04-03T06:11:45;28.15;;;14.43;;
71679;SDS011;59512;42.662;23.254;2023-04-03T06:14:11;22.75;;;12.27;;
71679;SDS011;59512;42.662;23.254;2023-04-03T06:16:36;25.97;;;13.50;;
71679;SDS011;59512;42.662;23.254;2023-04-03T06:19:03;30.77;;;15.30;;
71679;SDS011;59512;42.662;23.254;2023-04-03T06:21:29;33.30;;;16.33;;
71679;SDS011;59512;42.662;23.254;2023-04-03T06:23:55;33.97;;;16.98;;
71679;SDS011;59512;42.662;23.254;2023-04-03T06:26:20;29.20;;;14.77;;
71679;SDS011;59512;42.662;23.254;2023-04-03T06:28:46;26.90;;;14.30;;
71679;SDS011;59512;42.662;23.254;2023-04-03T06:31:11;22.17;;;14.33;;
71679;SDS011;59512;42.662;23.254;2023-04-03T06:33:36;25.00;;;13.07;;
71679;SDS011;59512;42.662;23.254;2023-04-03T06:36:05;21.55;;;12.38;;
71679;SDS011;59512;42.662;23.254;2023-04-03T06:38:31;22.80;;;13.50;;
71679;SDS011;59512;42.662;23.254;2023-04-03T06:40:58;23.70;;;12.93;;
71679;SDS011;59512;42.662;23.254;2023-04-03T06:43:23;23.67;;;11.60;;
71679;SDS011;59512;42.662;23.254;2023-04-03T06:45:49;20.10;;;10.67;;
71679;SDS011;59512;42.662;23.254;2023-04-03T06:48:14;18.30;;;9.67;;
71679;SDS011;59512;42.662;23.254;2023-04-03T06:50:40;17.40;;;8.98;;
71679;SDS011;59512;42.662;23.254;2023-04-03T06:53:06;17.60;;;9.47;;
71679;SDS011;59512;42.662;23.254;2023-04-03T06:55:32;17.50;;;9.90;;
71679;SDS011;59512;42.662;23.254;2023-04-03T06:57:57;17.87;;;10.27;;
71679;SDS011;59512;42.662;23.254;2023-04-03T07:00:23;14.60;;;8.80;;
71679;SDS011;59512;42.662;23.254;2023-04-03T07:02:48;16.00;;;7.85;;
71679;SDS011;59512;42.662;23.254;2023-04-03T07:05:14;12.80;;;7.73;;
71679;SDS011;59512;42.662;23.254;2023-04-03T07:07:39;14.30;;;5.83;;
71679;SDS011;59512;42.662;23.254;2023-04-03T07:10:06;13.52;;;5.97;;
71679;SDS011;59512;42.662;23.254;2023-04-03T07:12:32;13.20;;;5.13;;
71679;SDS011;59512;42.662;23.254;2023-04-03T07:14:57;10.00;;;5.23;;
71679;SDS011;59512;42.662;23.254;2023-04-03T07:17:23;11.33;;;5.40;;
71679;SDS011;59512;42.662;23.254;2023-04-03T07:19:50;15.98;;;5.60;;
71679;SDS011;59512;42.662;23.254;2023-04-03T07:22:15;11.83;;;6.37;;
71679;SDS011;59512;42.662;23.254;2023-04-03T07:24:41;11.50;;;6.20;;
71679;SDS011;59512;42.662;23.254;2023-04-03T07:27:06;12.97;;;5.57;;
71679;SDS011;59512;42.662;23.254;2023-04-03T07:29:33;9.48;;;4.45;;
71679;SDS011;59512;42.662;23.254;2023-04-03T07:31:59;10.18;;;4.00;;
71679;SDS011;59512;42.662;23.254;2023-04-03T07:34:24;9.87;;;4.53;;
71679;SDS011;59512;42.662;23.254;2023-04-03T07:36:50;11.60;;;5.07;;
71679;SDS011;59512;42.662;23.254;2023-04-03T07:39:15;9.97;;;5.40;;
71679;SDS011;59512;42.662;23.254;2023-04-03T07:41:41;13.48;;;5.55;;
71679;SDS011;59512;42.662;23.254;2023-04-03T07:44:06;11.60;;;4.80;;
71679;SDS011;59512;42.662;23.254;2023-04-03T07:46:34;10.30;;;4.43;;
71679;SDS011;59512;42.662;23.254;2023-04-03T07:49:00;10.20;;;4.83;;
71679;SDS011;59512;42.662;23.254;2023-04-03T07:51:25;11.70;;;5.40;;
71679;SDS011;59512;42.662;23.254;2023-04-03T07:53:51;11.00;;;5.10;;
71679;SDS011;59512;42.662;23.254;2023-04-03T07:56:17;11.23;;;5.70;;
71679;SDS011;59512;42.662;23.254;2023-04-03T07:58:42;10.97;;;5.40;;
71679;SDS011;59512;42.662;23.254;2023-04-03T08:01:09;12.53;;;5.63;;
71679;SDS011;59512;42.662;23.254;2023-04-03T08:03:34;14.57;;;6.20;;
71679;SDS011;59512;42.662;23.254;2023-04-03T08:06:02;12.65;;;4.70;;
71679;SDS011;59512;42.662;23.254;2023-04-03T08:08:29;13.68;;;5.90;;
71679;SDS011;59512;42.662;23.254;2023-04-03T08:10:58;14.13;;;6.23;;
71679;SDS011;59512;42.662;23.254;2023-04-03T08:13:25;13.73;;;4.97;;
71679;SDS011;59512;42.662;23.254;2023-04-03T08:15:50;10.53;;;5.10;;
71679;SDS011;59512;42.662;23.254;2023-04-03T08:18:16;11.00;;;4.28;;
71679;SDS011;59512;42.662;23.254;2023-04-03T08:20:42;11.43;;;4.70;;
71679;SDS011;59512;42.662;23.254;2023-04-03T08:23:07;11.55;;;4.57;;
71679;SDS011;59512;42.662;23.254;2023-04-03T08:25:34;12.13;;;5.43;;
71679;SDS011;59512;42.662;23.254;2023-04-03T08:28:02;12.55;;;5.38;;
71679;SDS011;59512;42.662;23.254;2023-04-03T08:30:28;11.77;;;5.55;;
71679;SDS011;59512;42.662;23.254;2023-04-03T08:32:54;17.10;;;6.00;;
71679;SDS011;59512;42.662;23.254;2023-04-03T08:35:19;17.33;;;5.43;;
71679;SDS011;59512;42.662;23.254;2023-04-03T08:37:45;13.50;;;4.83;;
71679;SDS011;59512;42.662;23.254;2023-04-03T08:40:13;25.30;;;6.47;;
71679;SDS011;59512;42.662;23.254;2023-04-03T08:48:05;9.57;;;5.50;;
71679;SDS011;59512;42.662;23.254;2023-04-03T08:50:39;14.70;;;6.30;;
71679;SDS011;59512;42.662;23.254;2023-04-03T08:53:06;12.73;;;7.70;;
71679;SDS011;59512;42.662;23.254;2023-04-03T08:55:45;12.50;;;7.78;;
71679;SDS011;59512;42.662;23.254;2023-04-03T08:58:30;13.90;;;8.07;;
71679;SDS011;59512;42.662;23.254;2023-04-03T09:01:07;17.80;;;9.73;;
71679;SDS011;59512;42.662;23.254;2023-04-03T09:03:41;15.52;;;9.23;;
71679;SDS011;59512;42.662;23.254;2023-04-03T09:06:07;15.80;;;9.63;;
71679;SDS011;59512;42.662;23.254;2023-04-03T09:08:52;17.02;;;9.93;;
71679;SDS011;59512;42.662;23.254;2023-04-03T09:16:59;36.95;;;23.50;;
71679;SDS011;59512;42.662;23.254;2023-04-03T09:22:00;23.70;;;13.33;;
71679;SDS011;59512;42.662;23.254;2023-04-03T09:24:28;25.25;;;14.07;;
71679;SDS011;59512;42.662;23.254;2023-04-03T09:27:01;28.15;;;15.23;;
71679;SDS011;59512;42.662;23.254;2023-04-03T09:29:29;23.73;;;14.43;;
71679;SDS011;59512;42.662;23.254;2023-04-03T09:32:01;34.00;;;22.95;;
71679;SDS011;59512;42.662;23.254;2023-04-03T09:34:30;21.83;;;14.30;;
71679;SDS011;59512;42.662;23.254;2023-04-03T09:36:58;23.40;;;12.90;;
71679;SDS011;59512;42.662;23.254;2023-04-03T09:39:30;27.30;;;11.95;;
71679;SDS011;59512;42.662;23.254;2023-04-03T09:42:00;19.03;;;10.37;;
71679;SDS011;59512;42.662;23.254;2023-04-03T09:44:29;18.20;;;8.95;;
71679;SDS011;59512;42.662;23.254;2023-04-03T09:46:57;13.55;;;6.00;;
71679;SDS011;59512;42.662;23.254;2023-04-03T09:49:22;13.00;;;5.87;;
71679;SDS011;59512;42.662;23.254;2023-04-03T09:51:48;12.27;;;6.15;;
71679;SDS011;59512;42.662;23.254;2023-04-03T09:54:24;9.60;;;3.80;;
71679;SDS011;59512;42.662;23.254;2023-04-03T09:57:12;8.88;;;4.32;;
71679;SDS011;59512;42.662;23.254;2023-04-03T09:59:43;8.68;;;4.60;;
71679;SDS011;59512;42.662;23.254;2023-04-03T10:02:34;7.95;;;3.00;;
71679;SDS011;59512;42.662;23.254;2023-04-03T10:05:01;11.03;;;2.80;;
71679;SDS011;59512;42.662;23.254;2023-04-03T10:07:32;11.27;;;6.90;;
71679;SDS011;59512;42.662;23.254;2023-04-03T10:10:02;6.88;;;3.38;;
71679;SDS011;59512;42.662;23.254;2023-04-03T10:12:48;7.57;;;3.63;;
71679;SDS011;59512;42.662;23.254;2023-04-03T10:15:23;7.40;;;2.90;;
71679;SDS011;59512;42.662;23.254;2023-04-03T10:17:52;6.27;;;2.00;;
71679;SDS011;59512;42.662;23.254;2023-04-03T10:23:05;5.82;;;2.40;;
71679;SDS011;59512;42.662;23.254;2023-04-03T10:34:38;8.98;;;2.97;;
71679;SDS011;59512;42.662;23.254;2023-04-03T10:37:14;8.77;;;2.92;;
71679;SDS011;59512;42.662;23.254;2023-04-03T10:39:54;8.48;;;2.30;;
71679;SDS011;59512;42.662;23.254;2023-04-03T10:42:38;6.10;;;2.40;;
71679;SDS011;59512;42.662;23.254;2023-04-03T10:45:24;6.43;;;2.23;;
71679;SDS011;59512;42.662;23.254;2023-04-03T10:48:02;8.90;;;2.38;;
71679;SDS011;59512;42.662;23.254;2023-04-03T10:50:58;7.30;;;2.60;;
71679;SDS011;59512;42.662;23.254;2023-04-03T10:58:39;8.93;;;3.97;;
71679;SDS011;59512;42.662;23.254;2023-04-03T11:01:08;7.28;;;3.10;;
71679;SDS011;59512;42.662;23.254;2023-04-03T11:03:37;8.80;;;3.58;;
71679;SDS011;59512;42.662;23.254;2023-04-03T11:06:07;8.73;;;4.00;;
71679;SDS011;59512;42.662;23.254;2023-04-03T11:11:20;8.43;;;3.40;;
71679;SDS011;59512;42.662;23.254;2023-04-03T11:13:59;9.93;;;5.05;;
71679;SDS011;59512;42.662;23.254;2023-04-03T11:16:48;10.50;;;5.30;;
71679;SDS011;59512;42.662;23.254;2023-04-03T11:19:23;10.13;;;5.43;;
71679;SDS011;59512;42.662;23.254;2023-04-03T11:24:43;9.07;;;4.80;;
71679;SDS011;59512;42.662;23.254;2023-04-03T11:27:17;8.73;;;4.88;;
71679;SDS011;59512;42.662;23.254;2023-04-03T11:29:47;8.95;;;4.10;;
71679;SDS011;59512;42.662;23.254;2023-04-03T11:32:21;9.05;;;4.30;;
71679;SDS011;59512;42.662;23.254;2023-04-03T11:34:51;9.80;;;4.70;;
71679;SDS011;59512;42.662;23.254;2023-04-03T11:40:06;17.40;;;8.95;;
71679;SDS011;59512;42.662;23.254;2023-04-03T11:42:48;14.20;;;8.18;;
71679;SDS011;59512;42.662;23.254;2023-04-03T11:47:45;12.63;;;7.53;;
71679;SDS011;59512;42.662;23.254;2023-04-03T12:06:41;11.27;;;6.65;;
71679;SDS011;59512;42.662;23.254;2023-04-03T12:16:22;12.90;;;7.53;;
71679;SDS011;59512;42.662;23.254;2023-04-03T12:21:20;12.77;;;7.70;;
71679;SDS011;59512;42.662;23.254;2023-04-03T12:48:39;10.15;;;6.35;;
71679;SDS011;59512;42.662;23.254;2023-04-03T12:51:37;11.35;;;6.93;;
71679;SDS011;59512;42.662;23.254;2023-04-03T12:54:16;10.38;;;6.30;;
71679;SDS011;59512;42.662;23.254;2023-04-03T12:56:44;12.50;;;7.53;;
71679;SDS011;59512;42.662;23.254;2023-04-03T13:01:41;13.85;;;10.30;;
71679;SDS011;59512;42.662;23.254;2023-04-03T13:04:09;15.37;;;9.63;;
71679;SDS011;59512;42.662;23.254;2023-04-03T13:06:41;13.75;;;9.43;;
71679;SDS011;59512;42.662;23.254;2023-04-03T13:09:24;13.93;;;11.07;;
71679;SDS011;59512;42.662;23.254;2023-04-03T13:14:28;13.10;;;10.27;;
71679;SDS011;59512;42.662;23.254;2023-04-03T13:16:58;13.82;;;10.32;;
71679;SDS011;59512;42.662;23.254;2023-04-03T13:19:25;12.23;;;9.20;;
71679;SDS011;59512;42.662;23.254;2023-04-03T13:22:01;14.20;;;9.93;;
71679;SDS011;59512;42.662;23.254;2023-04-03T13:24:29;15.40;;;10.88;;
71679;SDS011;59512;42.662;23.254;2023-04-03T13:26:56;14.90;;;10.67;;
71679;SDS011;59512;42.662;23.254;2023-04-03T13:29:23;17.88;;;10.98;;
71679;SDS011;59512;42.662;23.254;2023-04-03T13:31:54;18.60;;;11.95;;
71679;SDS011;59512;42.662;23.254;2023-04-03T13:34:21;16.88;;;12.07;;
71679;SDS011;59512;42.662;23.254;2023-04-03T13:36:59;15.77;;;12.23;;
71679;SDS011;59512;42.662;23.254;2023-04-03T13:39:27;15.80;;;11.40;;
71679;SDS011;59512;42.662;23.254;2023-04-03T13:47:51;14.88;;;11.55;;
71679;SDS011;59512;42.662;23.254;2023-04-03T13:50:19;14.25;;;11.00;;
71679;SDS011;59512;42.662;23.254;2023-04-03T13:52:54;16.00;;;11.10;;
71679;SDS011;59512;42.662;23.254;2023-04-03T13:55:29;13.93;;;9.80;;
71679;SDS011;59512;42.662;23.254;2023-04-03T13:57:57;12.85;;;10.07;;
71679;SDS011;59512;42.662;23.254;2023-04-03T14:03:16;14.25;;;8.95;;
71679;SDS011;59512;42.662;23.254;2023-04-03T14:05:47;11.30;;;7.70;;
71679;SDS011;59512;42.662;23.254;2023-04-03T14:08:13;11.48;;;7.30;;
71679;SDS011;59512;42.662;23.254;2023-04-03T14:10:38;11.57;;;7.90;;
71679;SDS011;59512;42.662;23.254;2023-04-03T14:13:03;12.13;;;8.53;;
71679;SDS011;59512;42.662;23.254;2023-04-03T14:15:30;11.98;;;8.05;;
71679;SDS011;59512;42.662;23.254;2023-04-03T14:17:56;12.00;;;8.38;;
71679;SDS011;59512;42.662;23.254;2023-04-03T14:20:23;13.02;;;8.68;;
71679;SDS011;59512;42.662;23.254;2023-04-03T14:22:51;13.02;;;9.32;;
71679;SDS011;59512;42.662;23.254;2023-04-03T14:25:17;12.18;;;8.55;;
71679;SDS011;59512;42.662;23.254;2023-04-03T14:27:45;12.03;;;6.90;;
71679;SDS011;59512;42.662;23.254;2023-04-03T14:30:15;12.05;;;6.95;;
71679;SDS011;59512;42.662;23.254;2023-04-03T14:32:51;10.95;;;6.63;;
71679;SDS011;59512;42.662;23.254;2023-04-03T14:35:16;12.38;;;7.13;;
71679;SDS011;59512;42.662;23.254;2023-04-03T14:37:43;11.85;;;7.45;;
71679;SDS011;59512;42.662;23.254;2023-04-03T14:40:12;13.13;;;7.93;;
71679;SDS011;59512;42.662;23.254;2023-04-03T14:42:39;10.70;;;6.20;;
71679;SDS011;59512;42.662;23.254;2023-04-03T14:45:06;10.25;;;6.53;;
71679;SDS011;59512;42.662;23.254;2023-04-03T14:47:35;10.25;;;6.45;;
71679;SDS011;59512;42.662;23.254;2023-04-03T14:50:28;10.03;;;5.80;;
71679;SDS011;59512;42.662;23.254;2023-04-03T14:52:55;8.45;;;5.38;;
71679;SDS011;59512;42.662;23.254;2023-04-03T14:55:23;9.73;;;6.13;;
71679;SDS011;59512;42.662;23.254;2023-04-03T14:57:49;9.43;;;5.72;;
71679;SDS011;59512;42.662;23.254;2023-04-03T15:00:17;13.50;;;8.25;;
71679;SDS011;59512;42.662;23.254;2023-04-03T15:02:45;10.13;;;6.37;;
71679;SDS011;59512;42.662;23.254;2023-04-03T15:05:11;10.00;;;5.57;;
71679;SDS011;59512;42.662;23.254;2023-04-03T15:07:44;9.77;;;6.03;;
71679;SDS011;59512;42.662;23.254;2023-04-03T15:10:17;10.23;;;6.27;;
71679;SDS011;59512;42.662;23.254;2023-04-03T15:12:45;10.77;;;6.18;;
71679;SDS011;59512;42.662;23.254;2023-04-03T15:15:11;10.18;;;5.95;;
71679;SDS011;59512;42.662;23.254;2023-04-03T15:17:37;10.45;;;5.82;;
71679;SDS011;59512;42.662;23.254;2023-04-03T15:20:03;9.98;;;6.05;;
71679;SDS011;59512;42.662;23.254;2023-04-03T15:22:31;10.23;;;6.27;;
71679;SDS011;59512;42.662;23.254;2023-04-03T15:24:56;10.65;;;6.70;;
71679;SDS011;59512;42.662;23.254;2023-04-03T15:27:21;10.43;;;6.67;;
71679;SDS011;59512;42.662;23.254;2023-04-03T15:29:47;9.70;;;6.97;;
71679;SDS011;59512;42.662;23.254;2023-04-03T15:32:12;10.40;;;6.43;;
71679;SDS011;59512;42.662;23.254;2023-04-03T15:34:38;10.23;;;6.07;;
71679;SDS011;59512;42.662;23.254;2023-04-03T15:37:04;10.18;;;7.03;;
71679;SDS011;59512;42.662;23.254;2023-04-03T15:39:30;12.07;;;7.75;;
71679;SDS011;59512;42.662;23.254;2023-04-03T15:41:56;11.77;;;7.83;;
71679;SDS011;59512;42.662;23.254;2023-04-03T15:44:24;15.18;;;9.63;;
71679;SDS011;59512;42.662;23.254;2023-04-03T15:46:50;15.67;;;9.37;;
71679;SDS011;59512;42.662;23.254;2023-04-03T15:49:16;14.20;;;8.60;;
71679;SDS011;59512;42.662;23.254;2023-04-03T15:51:42;13.13;;;8.57;;
71679;SDS011;59512;42.662;23.254;2023-04-03T15:54:08;14.27;;;9.27;;
71679;SDS011;59512;42.662;23.254;2023-04-03T15:56:34;12.40;;;8.90;;
71679;SDS011;59512;42.662;23.254;2023-04-03T15:58:59;13.23;;;9.13;;
71679;SDS011;59512;42.662;23.254;2023-04-03T16:01:25;14.02;;;9.40;;
71679;SDS011;59512;42.662;23.254;2023-04-03T16:03:50;15.50;;;10.20;;
71679;SDS011;59512;42.662;23.254;2023-04-03T16:06:16;15.10;;;10.07;;
71679;SDS011;59512;42.662;23.254;2023-04-03T16:08:44;11.70;;;8.88;;
71679;SDS011;59512;42.662;23.254;2023-04-03T16:11:10;12.77;;;9.07;;
71679;SDS011;59512;42.662;23.254;2023-04-03T16:13:35;11.97;;;8.43;;
71679;SDS011;59512;42.662;23.254;2023-04-03T16:16:01;12.27;;;9.00;;
71679;SDS011;59512;42.662;23.254;2023-04-03T16:18:27;12.75;;;9.35;;
71679;SDS011;59512;42.662;23.254;2023-04-03T16:20:53;11.53;;;8.27;;
71679;SDS011;59512;42.662;23.254;2023-04-03T16:23:19;11.88;;;8.13;;